createdAt,value
2019-05-07T00:01:26.587Z,4.50
2019-05-07T00:03:56.771Z,4.10
2019-05-07T00:06:26.930Z,5.87
2019-05-07T00:08:57.190Z,5.53
2019-05-07T00:11:27.315Z,7.13
2019-05-07T00:13:57.513Z,5.40
2019-05-07T00:16:27.680Z,5.43
2019-05-07T00:18:57.890Z,5.53
2019-05-07T00:21:28.110Z,5.03
2019-05-07T00:23:58.239Z,5.37
2019-05-07T00:26:28.462Z,4.77
2019-05-07T00:28:58.676Z,4.60
2019-05-07T00:31:28.952Z,4.50
2019-05-07T00:33:59.138Z,5.20
2019-05-07T00:36:47.111Z,5.43
2019-05-07T00:39:34.843Z,4.93
2019-05-07T00:42:15.190Z,5.17
2019-05-07T00:45:21.632Z,5.63
2019-05-07T00:47:35.293Z,5.17
2019-05-07T00:50:10.133Z,4.73
2019-05-07T00:52:42.830Z,5.30
2019-05-07T00:55:12.223Z,5.30
2019-05-07T00:57:42.918Z,4.87
2019-05-07T01:00:13.377Z,5.80
2019-05-07T01:02:43.619Z,4.63
2019-05-07T01:05:13.970Z,6.00
2019-05-07T01:07:44.193Z,5.53
2019-05-07T01:10:15.282Z,5.47
2019-05-07T01:12:45.711Z,5.20
2019-05-07T01:15:28.009Z,6.13
2019-05-07T01:17:48.225Z,6.60
2019-05-07T01:20:18.466Z,6.23
2019-05-07T01:22:48.621Z,6.23
2019-05-07T01:25:18.838Z,5.93
2019-05-07T01:27:48.962Z,6.13
2019-05-07T01:30:19.454Z,6.50
2019-05-07T01:32:57.749Z,5.83
2019-05-07T01:35:46.883Z,6.20
2019-05-07T01:38:19.050Z,6.03
2019-05-07T01:40:49.274Z,5.77
2019-05-07T01:43:19.411Z,6.23
2019-05-07T01:45:50.843Z,5.90
2019-05-07T01:48:22.970Z,5.40
2019-05-07T01:50:53.578Z,6.00
2019-05-07T02:03:53.110Z,10.77
2019-05-07T02:06:28.758Z,8.90
2019-05-07T02:09:04.905Z,10.77
2019-05-07T02:11:39.522Z,7.43
2019-05-07T02:14:09.870Z,7.40
2019-05-07T02:16:41.875Z,7.53
2019-05-07T02:19:12.682Z,7.97
2019-05-07T02:21:42.987Z,10.10
2019-05-07T02:24:13.097Z,10.43
2019-05-07T02:26:43.266Z,11.33
2019-05-07T02:29:13.502Z,11.70
2019-05-07T02:31:44.447Z,10.30
2019-05-07T02:34:14.678Z,9.63
2019-05-07T02:36:44.748Z,10.30
2019-05-07T02:39:27.054Z,10.23
2019-05-07T02:41:57.304Z,10.40
2019-05-07T02:44:27.474Z,11.07
2019-05-07T02:47:06.195Z,11.33
2019-05-07T02:49:45.284Z,9.47
2019-05-07T02:52:24.589Z,11.53
2019-05-07T02:55:04.012Z,10.80
2019-05-07T02:57:34.669Z,10.93
2019-05-07T03:00:06.011Z,10.20
2019-05-07T03:02:36.397Z,11.07
2019-05-07T03:05:06.758Z,9.57
2019-05-07T03:07:36.977Z,10.33
2019-05-07T03:10:07.311Z,9.60
2019-05-07T03:12:37.512Z,9.50
2019-05-07T03:15:07.711Z,8.50
2019-05-07T03:17:38.082Z,9.63
2019-05-07T03:20:13.812Z,10.30
2019-05-07T03:22:44.284Z,9.37
2019-05-07T03:25:23.131Z,10.37
2019-05-07T03:27:53.704Z,10.33
2019-05-07T03:30:49.383Z,11.17
2019-05-07T03:33:46.567Z,10.63
2019-05-07T03:36:16.602Z,9.30
2019-05-07T03:38:44.895Z,9.77
2019-05-07T03:41:15.097Z,9.87
2019-05-07T03:43:45.331Z,9.50
2019-05-07T03:46:17.391Z,9.27
2019-05-07T03:48:48.201Z,9.30
2019-05-07T03:51:18.442Z,9.17
2019-05-07T03:53:48.604Z,9.50
2019-05-07T03:56:18.969Z,8.90
2019-05-07T03:58:49.262Z,9.37
2019-05-07T04:01:19.469Z,8.80
2019-05-07T04:03:49.631Z,7.87
2019-05-07T04:06:20.034Z,8.10
2019-05-07T04:08:52.984Z,7.53
2019-05-07T04:11:23.002Z,6.47
2019-05-07T04:13:53.765Z,6.93
2019-05-07T04:16:24.210Z,5.80
2019-05-07T04:18:54.613Z,5.30
2019-05-07T04:21:24.903Z,5.57
2019-05-07T04:24:13.551Z,5.67
2019-05-07T04:26:46.985Z,5.07
2019-05-07T04:29:17.823Z,5.63
2019-05-07T04:31:48.090Z,4.90
2019-05-07T04:34:44.563Z,4.90
2019-05-07T04:37:15.317Z,4.70
2019-05-07T04:39:53.737Z,5.40
2019-05-07T04:42:24.823Z,4.73
2019-05-07T04:44:55.082Z,5.27
2019-05-07T04:47:38.707Z,5.47
2019-05-07T04:49:57.195Z,5.87
2019-05-07T04:52:39.743Z,5.77
2019-05-07T04:55:13.631Z,5.90
2019-05-07T04:57:43.836Z,5.63
2019-05-07T05:00:14.799Z,5.90
2019-05-07T05:02:54.700Z,5.87
2019-05-07T05:05:25.515Z,5.20
2019-05-07T05:07:55.727Z,6.53
2019-05-07T05:10:26.576Z,5.77
2019-05-07T05:12:56.802Z,6.20
2019-05-07T05:15:27.059Z,6.37
2019-05-07T05:17:57.350Z,5.73
2019-05-07T05:20:33.926Z,6.27
2019-05-07T05:23:23.095Z,6.37
2019-05-07T05:25:53.206Z,6.47
2019-05-07T05:28:23.455Z,7.07
2019-05-07T05:30:56.903Z,7.17
2019-05-07T05:33:27.057Z,6.23
2019-05-07T05:35:57.159Z,7.60
2019-05-07T05:38:27.501Z,6.53
2019-05-07T05:40:57.915Z,6.00
2019-05-07T05:43:45.649Z,5.93
2019-05-07T05:46:15.858Z,6.70
2019-05-07T05:48:46.097Z,5.90
2019-05-07T05:51:38.125Z,6.70
2019-05-07T05:54:27.289Z,6.13
2019-05-07T05:57:03.562Z,7.00
2019-05-07T05:59:49.189Z,6.80
2019-05-07T06:02:35.125Z,7.30
2019-05-07T06:05:34.544Z,6.97
2019-05-07T06:08:32.306Z,7.73
2019-05-07T06:11:23.612Z,9.07
2019-05-07T06:14:22.296Z,8.30
2019-05-07T06:17:07.928Z,8.10
2019-05-07T06:19:51.773Z,7.83
2019-05-07T06:22:43.039Z,8.53
2019-05-07T06:25:19.819Z,9.60
2019-05-07T06:27:50.067Z,8.97
2019-05-07T06:30:22.548Z,8.43
2019-05-07T06:32:52.941Z,8.87
2019-05-07T06:35:23.231Z,8.43
2019-05-07T06:37:53.354Z,9.98
2019-05-07T06:40:45.620Z,9.50
2019-05-07T06:43:21.844Z,8.73
2019-05-07T06:45:55.650Z,8.40
2019-05-07T06:48:37.745Z,8.80
2019-05-07T06:50:58.743Z,9.37
2019-05-07T06:53:30.054Z,9.07
2019-05-07T06:56:02.829Z,8.67
2019-05-07T06:58:55.463Z,8.33
2019-05-07T07:01:37.472Z,8.77
2019-05-07T07:04:14.835Z,9.13
2019-05-07T07:07:30.750Z,8.17
2019-05-07T07:10:14.992Z,9.00
2019-05-07T07:12:45.193Z,8.73
2019-05-07T07:15:16.039Z,8.87
2019-05-07T07:17:46.372Z,8.60
2019-05-07T07:20:16.837Z,8.40
2019-05-07T07:22:49.585Z,7.40
2019-05-07T07:25:19.430Z,7.60
2019-05-07T07:27:49.309Z,8.77
2019-05-07T07:30:47.890Z,8.83
2019-05-07T07:33:18.468Z,7.30
2019-05-07T07:35:48.671Z,8.40
2019-05-07T07:38:35.168Z,8.40
2019-05-07T07:41:32.724Z,8.53
2019-05-07T07:44:02.786Z,8.73
2019-05-07T07:46:33.146Z,8.73
2019-05-07T07:49:10.208Z,8.30
2019-05-07T07:51:41.165Z,8.53
2019-05-07T07:54:06.901Z,8.83
2019-05-07T07:57:02.249Z,7.77
2019-05-07T07:59:55.681Z,8.97
2019-05-07T08:02:42.429Z,8.23
2019-05-07T08:05:12.647Z,8.17
2019-05-07T08:07:45.412Z,8.30
2019-05-07T08:10:15.672Z,9.50
2019-05-07T08:12:45.652Z,8.50
2019-05-07T08:15:20.806Z,8.13
2019-05-07T08:17:47.859Z,9.63
2019-05-07T08:20:22.055Z,9.07
2019-05-07T08:22:52.602Z,9.10
2019-05-07T08:25:42.617Z,9.77
2019-05-07T08:28:12.641Z,9.27
2019-05-07T08:30:44.870Z,8.83
2019-05-07T08:33:19.891Z,8.80
2019-05-07T08:36:09.249Z,9.23
2019-05-07T08:38:52.437Z,9.30
2019-05-07T08:41:23.350Z,9.67
2019-05-07T08:44:10.738Z,9.33
2019-05-07T08:46:43.694Z,8.83
2019-05-07T08:49:31.816Z,9.70
2019-05-07T08:51:48.271Z,10.50
2019-05-07T08:54:32.092Z,9.73
2019-05-07T08:57:08.417Z,9.63
2019-05-07T08:59:38.997Z,10.10
2019-05-07T09:02:13.988Z,11.67
2019-05-07T09:04:48.740Z,10.77
2019-05-07T09:07:19.131Z,11.67
2019-05-07T09:09:52.063Z,11.13
2019-05-07T09:12:22.941Z,11.23
2019-05-07T09:14:54.207Z,11.40
2019-05-07T09:17:35.587Z,11.20
2019-05-07T09:20:08.911Z,12.50
2019-05-07T09:22:37.952Z,10.97
2019-05-07T09:25:08.359Z,11.47
2019-05-07T09:27:46.345Z,10.97
2019-05-07T09:30:34.916Z,11.60
2019-05-07T09:33:12.358Z,12.23
2019-05-07T09:35:53.773Z,12.20
2019-05-07T09:38:23.789Z,12.10
2019-05-07T09:40:56.524Z,12.63
2019-05-07T09:43:25.278Z,11.77
2019-05-07T09:45:55.190Z,11.17
2019-05-07T09:48:25.040Z,12.00
2019-05-07T09:50:55.040Z,11.77
2019-05-07T09:53:24.964Z,12.43
2019-05-07T09:55:54.844Z,11.80
2019-05-07T09:58:35.718Z,12.13
2019-05-07T10:00:56.839Z,12.47
2019-05-07T10:03:26.796Z,11.70
2019-05-07T10:05:56.888Z,12.43
2019-05-07T10:08:26.810Z,13.23
2019-05-07T10:10:56.701Z,12.40
2019-05-07T10:13:37.314Z,12.87
2019-05-07T10:16:07.870Z,12.50
2019-05-07T10:18:38.014Z,12.23
2019-05-07T10:21:08.121Z,12.83
2019-05-07T10:23:38.234Z,13.47
2019-05-07T10:26:08.205Z,12.77
2019-05-07T10:28:38.335Z,12.90
2019-05-07T10:31:08.184Z,12.57
2019-05-07T10:33:38.074Z,12.10
2019-05-07T10:36:13.764Z,12.40
2019-05-07T10:38:43.827Z,12.10
2019-05-07T10:41:13.981Z,11.47
2019-05-07T10:43:43.864Z,13.33
2019-05-07T10:46:42.259Z,12.57
2019-05-07T10:49:25.372Z,12.80
2019-05-07T10:51:55.421Z,11.63
2019-05-07T10:54:25.292Z,11.80
2019-05-07T10:56:55.261Z,11.40
2019-05-07T10:59:25.177Z,11.20
2019-05-07T11:02:04.542Z,13.37
2019-05-07T11:04:42.179Z,12.50
2019-05-07T11:07:06.174Z,13.47
2019-05-07T11:09:36.142Z,11.60
2019-05-07T11:12:08.277Z,12.80
2019-05-07T11:14:38.246Z,13.23
2019-05-07T11:17:34.615Z,12.73
2019-05-07T11:20:04.830Z,13.93
2019-05-07T11:22:34.700Z,13.07
2019-05-07T11:25:05.084Z,12.43
2019-05-07T11:27:35.074Z,13.53
2019-05-07T11:30:05.653Z,12.93
2019-05-07T11:32:35.966Z,10.60
2019-05-07T11:35:06.480Z,8.45
2019-05-07T11:37:36.324Z,10.00
2019-05-07T11:40:07.114Z,10.43
2019-05-07T11:43:05.125Z,9.83
2019-05-07T11:45:44.322Z,10.28
2019-05-07T11:48:14.760Z,10.82
2019-05-07T11:51:03.352Z,10.20
2019-05-07T11:53:29.398Z,9.60
2019-05-07T11:55:59.327Z,9.33
2019-05-07T11:58:29.413Z,9.35
2019-05-07T12:01:14.358Z,10.00
2019-05-07T12:03:44.767Z,10.18
2019-05-07T12:06:14.967Z,10.05
2019-05-07T12:08:51.405Z,10.08
2019-05-07T12:11:17.836Z,10.08
2019-05-07T12:13:48.219Z,10.63
2019-05-07T12:16:18.142Z,9.45
2019-05-07T12:18:48.109Z,10.03
2019-05-07T12:21:21.986Z,10.00
2019-05-07T12:23:49.990Z,9.45
2019-05-07T12:26:22.153Z,9.25
2019-05-07T12:28:52.201Z,9.68
2019-05-07T12:31:52.015Z,9.15
2019-05-07T12:34:25.941Z,9.30
2019-05-07T12:36:56.260Z,9.65
2019-05-07T12:39:27.519Z,9.05
2019-05-07T12:41:59.265Z,9.50
2019-05-07T12:44:29.176Z,9.58
2019-05-07T12:46:59.191Z,9.88
2019-05-07T12:49:29.509Z,9.23
2019-05-07T12:52:12.705Z,8.65
2019-05-07T12:55:03.281Z,9.18
2019-05-07T12:57:33.341Z,8.60
2019-05-07T13:00:22.912Z,8.60
2019-05-07T13:03:19.055Z,8.40
2019-05-07T13:05:49.099Z,7.67
2019-05-07T13:08:19.098Z,8.75
2019-05-07T13:10:49.008Z,8.48
2019-05-07T13:13:19.086Z,8.13
2019-05-07T13:15:49.245Z,8.50
2019-05-07T13:18:19.158Z,8.90
2019-05-07T13:20:49.118Z,8.28
2019-05-07T13:23:19.499Z,8.83
2019-05-07T13:25:52.117Z,9.35
2019-05-07T13:28:21.635Z,9.33
2019-05-07T13:30:52.628Z,9.03
2019-05-07T13:33:23.801Z,8.15
2019-05-07T13:35:54.024Z,8.30
2019-05-07T13:38:32.324Z,8.78
2019-05-07T13:41:12.815Z,8.33
2019-05-07T13:44:02.867Z,8.08
2019-05-07T13:46:34.394Z,8.28
2019-05-07T13:49:04.494Z,8.53
2019-05-07T13:51:34.820Z,9.55
2019-05-07T13:54:05.147Z,8.10
2019-05-07T13:56:35.282Z,8.78
2019-05-07T13:59:05.393Z,9.43
2019-05-07T14:01:41.846Z,8.25
2019-05-07T14:04:12.884Z,6.35
2019-05-07T14:06:43.185Z,7.50
2019-05-07T14:09:24.305Z,7.30
2019-05-07T14:11:54.568Z,5.47
2019-05-07T14:14:24.561Z,6.30
2019-05-07T14:16:54.728Z,6.17
2019-05-07T14:19:24.641Z,6.40
2019-05-07T14:21:54.702Z,7.15
2019-05-07T14:24:24.670Z,7.55
2019-05-07T14:26:54.713Z,6.90
2019-05-07T14:29:24.993Z,8.48
2019-05-07T14:32:05.338Z,7.62
2019-05-07T14:34:40.519Z,7.42
2019-05-07T14:37:17.153Z,7.92
2019-05-07T14:39:47.195Z,7.87
2019-05-07T14:42:24.019Z,8.13
2019-05-07T14:44:53.954Z,6.97
2019-05-07T14:47:24.353Z,7.30
2019-05-07T14:49:54.295Z,6.80
2019-05-07T14:52:32.177Z,7.33
2019-05-07T14:54:55.875Z,7.47
2019-05-07T14:57:25.846Z,7.00
2019-05-07T14:59:55.842Z,6.05
2019-05-07T15:02:25.806Z,5.83
2019-05-07T15:04:56.036Z,6.85
2019-05-07T15:07:26.116Z,5.53
2019-05-07T15:09:56.294Z,6.28
2019-05-07T15:12:26.339Z,6.00
2019-05-07T15:14:56.511Z,6.17
2019-05-07T15:17:36.100Z,6.08
2019-05-07T15:20:06.533Z,6.25
2019-05-07T15:22:52.666Z,6.60
2019-05-07T15:25:24.014Z,6.97
2019-05-07T15:27:55.184Z,6.97
2019-05-07T15:30:26.997Z,7.25
2019-05-07T15:32:56.904Z,7.42
2019-05-07T15:35:26.858Z,7.47
2019-05-07T15:37:57.437Z,7.70
2019-05-07T15:40:27.698Z,7.20
2019-05-07T15:42:57.680Z,5.47
2019-05-07T15:45:27.623Z,3.30
2019-05-07T15:47:58.604Z,4.10
2019-05-07T15:50:32.217Z,5.40
2019-05-07T15:53:17.051Z,5.05
2019-05-07T15:55:47.000Z,5.95
2019-05-07T15:58:17.228Z,4.85
2019-05-07T16:00:47.207Z,4.80
2019-05-07T16:03:25.467Z,4.58
2019-05-07T16:05:55.401Z,6.33
2019-05-07T16:08:27.172Z,5.50
2019-05-07T16:10:57.428Z,6.40
2019-05-07T16:13:32.662Z,6.10
2019-05-07T16:16:02.372Z,5.57
2019-05-07T16:18:42.156Z,6.03
2019-05-07T16:21:12.174Z,5.90
2019-05-07T16:23:42.292Z,5.43
2019-05-07T16:26:12.927Z,5.10
2019-05-07T16:28:43.095Z,5.05
2019-05-07T16:31:13.305Z,5.47
2019-05-07T16:33:43.583Z,5.35
2019-05-07T16:36:13.553Z,5.03
2019-05-07T16:38:43.464Z,5.58
2019-05-07T16:41:13.619Z,5.55
2019-05-07T16:43:44.048Z,4.80
2019-05-07T16:46:14.077Z,5.10
2019-05-07T16:48:43.987Z,5.15
2019-05-07T16:51:14.204Z,5.08
2019-05-07T16:53:44.108Z,5.47
2019-05-07T16:56:14.141Z,5.03
2019-05-07T16:58:48.965Z,3.77
2019-05-07T17:01:19.362Z,4.90
2019-05-07T17:03:53.642Z,4.83
2019-05-07T17:06:25.119Z,4.37
2019-05-07T17:09:14.229Z,4.87
2019-05-07T17:11:44.224Z,4.37
2019-05-07T17:14:14.133Z,4.07
2019-05-07T17:16:44.277Z,4.40
2019-05-07T17:19:15.585Z,3.70
2019-05-07T17:21:45.776Z,3.97
2019-05-07T17:24:15.965Z,4.87
2019-05-07T17:26:45.980Z,4.60
2019-05-07T17:29:17.203Z,4.13
2019-05-07T17:31:47.345Z,4.17
2019-05-07T17:34:17.603Z,4.60
2019-05-07T17:36:47.514Z,3.87
2019-05-07T17:39:17.791Z,4.60
2019-05-07T17:41:48.024Z,4.30
2019-05-07T17:44:18.144Z,4.40
2019-05-07T17:46:48.261Z,4.70
2019-05-07T17:49:18.551Z,4.67
2019-05-07T17:51:48.806Z,3.60
2019-05-07T17:54:19.233Z,3.57
2019-05-07T17:56:49.454Z,3.07
2019-05-07T17:59:19.756Z,3.53
2019-05-07T18:02:07.577Z,3.63
2019-05-07T18:04:50.552Z,4.03
2019-05-07T18:07:12.156Z,4.00
2019-05-07T18:09:42.589Z,4.47
2019-05-07T18:12:12.979Z,4.30
2019-05-07T18:14:43.124Z,3.47
2019-05-07T18:17:37.984Z,5.03
2019-05-07T18:20:08.856Z,3.80
2019-05-07T18:22:39.220Z,3.93
2019-05-07T18:25:09.583Z,3.93
2019-05-07T18:27:41.949Z,3.33
2019-05-07T18:30:12.870Z,3.07
2019-05-07T18:32:47.539Z,3.93
2019-05-07T18:35:17.924Z,3.43
2019-05-07T18:37:53.877Z,3.70
2019-05-07T18:40:24.373Z,3.23
2019-05-07T18:42:54.869Z,3.03
2019-05-07T18:45:26.888Z,3.47
2019-05-07T18:47:56.956Z,3.83
2019-05-07T18:50:28.079Z,3.23
2019-05-07T18:52:58.530Z,3.70
2019-05-07T18:55:28.924Z,3.70
2019-05-07T18:57:59.113Z,3.97
2019-05-07T19:00:33.115Z,5.13
2019-05-07T19:03:03.680Z,5.47
2019-05-07T19:05:34.016Z,5.10
2019-05-07T19:08:08.315Z,5.30
2019-05-07T19:10:38.541Z,5.30
2019-05-07T19:13:09.682Z,4.47
2019-05-07T19:15:41.850Z,5.83
2019-05-07T19:18:12.191Z,5.50
2019-05-07T19:20:46.760Z,5.30
2019-05-07T19:23:17.156Z,6.10
2019-05-07T19:25:52.320Z,4.77
2019-05-07T19:28:22.594Z,5.83
2019-05-07T19:30:53.018Z,4.93
2019-05-07T19:33:27.861Z,4.23
2019-05-07T19:35:58.125Z,4.67
2019-05-07T19:38:28.340Z,3.97
2019-05-07T19:40:58.662Z,4.07
2019-05-07T19:43:32.878Z,3.43
2019-05-07T19:46:03.411Z,3.80
2019-05-07T19:48:35.050Z,3.93
2019-05-07T19:51:08.006Z,3.77
2019-05-07T19:53:38.317Z,3.47
2019-05-07T19:56:18.468Z,3.60
2019-05-07T19:58:52.945Z,3.73
2019-05-07T20:01:51.502Z,3.17
2019-05-07T20:04:23.206Z,2.97
2019-05-07T20:06:53.411Z,3.60
2019-05-07T20:09:32.953Z,3.10
2019-05-07T20:12:03.556Z,3.43
2019-05-07T20:14:34.077Z,3.47
2019-05-07T20:17:06.046Z,3.00
2019-05-07T20:19:36.640Z,2.80
2019-05-07T20:22:08.443Z,3.73
2019-05-07T20:24:46.974Z,3.27
2019-05-07T20:27:17.532Z,3.77
2019-05-07T20:29:47.715Z,3.83
2019-05-07T20:32:17.983Z,4.47
2019-05-07T20:34:49.147Z,3.97
2019-05-07T20:37:19.452Z,3.50
2019-05-07T20:39:49.722Z,3.93
2019-05-07T20:42:23.162Z,3.80
2019-05-07T20:44:53.441Z,3.43
2019-05-07T20:47:23.709Z,3.07
2019-05-07T20:49:55.028Z,4.30
2019-05-07T20:52:26.577Z,4.37
2019-05-07T20:55:07.114Z,3.83
2019-05-07T20:57:42.795Z,4.20
2019-05-07T21:00:26.297Z,4.30
2019-05-07T21:03:14.330Z,3.67
2019-05-07T21:05:44.677Z,4.20
2019-05-07T21:08:14.942Z,4.20
2019-05-07T21:10:45.129Z,3.70
2019-05-07T21:13:27.545Z,3.83
2019-05-07T21:15:47.486Z,4.80
2019-05-07T21:18:17.773Z,4.53
2019-05-07T21:20:48.063Z,4.63
2019-05-07T21:23:18.286Z,4.37
2019-05-07T21:25:48.520Z,4.57
2019-05-07T21:28:18.704Z,4.60
2019-05-07T21:30:49.083Z,5.00
2019-05-07T21:33:19.287Z,4.20
2019-05-07T21:35:52.345Z,4.17
2019-05-07T21:38:22.584Z,3.60
2019-05-07T21:40:52.855Z,4.17
2019-05-07T21:43:23.052Z,4.30
2019-05-07T21:45:53.273Z,5.00
2019-05-07T21:48:23.609Z,5.10
2019-05-07T21:50:54.355Z,4.60
2019-05-07T21:53:32.180Z,5.30
2019-05-07T21:56:22.832Z,5.20
2019-05-07T21:58:59.848Z,4.73
2019-05-07T22:01:37.228Z,4.30
2019-05-07T22:04:07.540Z,4.50
2019-05-07T22:06:37.764Z,5.10
2019-05-07T22:09:10.193Z,4.33
2019-05-07T22:11:42.609Z,5.07
2019-05-07T22:14:12.993Z,4.57
2019-05-07T22:16:43.692Z,5.00
2019-05-07T22:19:13.913Z,5.10
2019-05-07T22:21:44.167Z,5.17
2019-05-07T22:24:15.187Z,4.50
2019-05-07T22:26:45.645Z,4.17
2019-05-07T22:29:15.928Z,5.03
2019-05-07T22:31:58.853Z,5.03
2019-05-07T22:35:02.596Z,4.33
2019-05-07T22:37:32.943Z,5.17
2019-05-07T22:40:03.076Z,4.10
2019-05-07T22:42:33.283Z,4.33
2019-05-07T22:45:03.514Z,5.07
2019-05-07T22:47:35.004Z,5.00
2019-05-07T22:50:05.709Z,4.13
2019-05-07T22:52:36.171Z,4.03
2019-05-07T22:55:06.544Z,3.93
2019-05-07T22:57:45.420Z,4.10
2019-05-07T23:00:23.983Z,4.17
2019-05-07T23:02:54.262Z,4.23
2019-05-07T23:05:24.580Z,3.93
2019-05-07T23:07:54.977Z,4.07
2019-05-07T23:10:25.260Z,4.00
2019-05-07T23:12:55.396Z,4.20
2019-05-07T23:15:25.609Z,4.43
2019-05-07T23:17:55.972Z,4.23
2019-05-07T23:20:28.265Z,4.30
2019-05-07T23:23:01.220Z,4.90
2019-05-07T23:25:32.358Z,4.60
2019-05-07T23:28:05.192Z,4.97
2019-05-07T23:30:36.040Z,5.27
2019-05-07T23:33:12.067Z,4.43
2019-05-07T23:35:45.827Z,5.47
2019-05-07T23:38:17.067Z,5.63
2019-05-07T23:41:09.630Z,5.90
2019-05-07T23:43:39.880Z,6.00
2019-05-07T23:46:10.236Z,6.07
2019-05-07T23:48:42.623Z,5.07
2019-05-07T23:51:12.675Z,5.83
2019-05-07T23:53:44.353Z,5.57
2019-05-07T23:56:14.764Z,5.80
2019-05-07T23:58:45.033Z,5.30
